Time;durP1;ratioP1;P1;durP2;ratioP2;P2;SDS_P1;SDS_P2;PMS_P1;PMS_P2;Temp;Humidity;BMP_temperature;BMP_pressure;BME280_temperature;BME280_humidity;BME280_pressure;Samples;Min_cycle;Max_cycle;Signal;HPM_P1;HPM_P2
2024/04/19 00:01:26;;;;;;;8.73;3.47;;;8.00;92.90;;;;;;5447638;26;20094;-80
2024/04/19 00:03:51;;;;;;;6.57;3.20;;;8.00;93.40;;;;;;5418852;26;20351;-79
2024/04/19 00:06:17;;;;;;;8.83;3.23;;;8.00;93.70;;;;;;5419191;26;20004;-78
2024/04/19 00:08:42;;;;;;;8.37;3.73;;;7.90;94.10;;;;;;5418801;26;20461;-78
2024/04/19 00:11:08;;;;;;;10.83;4.03;;;7.90;94.80;;;;;;5416982;26;20011;-77
2024/04/19 00:13:34;;;;;;;10.70;4.17;;;7.90;95.70;;;;;;5417395;26;20039;-79
2024/04/19 00:16:00;;;;;;;9.93;4.17;;;7.90;96.00;;;;;;5418929;26;20004;-79
2024/04/19 00:18:26;;;;;;;9.90;4.00;;;7.90;96.40;;;;;;5418674;26;20014;-76
2024/04/19 00:20:54;;;;;;;8.73;3.93;;;7.80;97.00;;;;;;5447347;26;20003;-83
2024/04/19 00:23:20;;;;;;;12.33;4.03;;;7.80;97.50;;;;;;5419026;26;20022;-80
2024/04/19 00:25:45;;;;;;;9.03;4.10;;;7.80;98.00;;;;;;5447318;26;20327;-80
2024/04/19 00:28:11;;;;;;;9.60;4.20;;;7.80;98.60;;;;;;5446687;26;20003;-82
2024/04/19 00:30:37;;;;;;;10.40;4.23;;;7.80;99.40;;;;;;5416936;26;20093;-81
2024/04/19 00:33:02;;;;;;;7.60;3.73;;;7.80;99.70;;;;;;5416490;26;20010;-81
2024/04/19 00:35:28;;;;;;;11.93;4.00;;;7.70;99.90;;;;;;5417138;26;20019;-80
2024/04/19 00:37:54;;;;;;;10.87;4.17;;;7.70;99.90;;;;;;5419227;26;20443;-78
2024/04/19 00:40:19;;;;;;;12.33;4.30;;;7.60;99.90;;;;;;5418510;26;20371;-77
2024/04/19 00:42:58;;;;;;;14.07;5.13;;;7.60;99.90;;;;;;5418548;26;20335;-75
2024/04/19 00:45:40;;;;;;;9.50;4.27;;;7.60;99.90;;;;;;5418689;26;19996;-80
2024/04/19 00:48:12;;;;;;;10.90;4.70;;;7.60;99.90;;;;;;5418483;26;20004;-76
2024/04/19 00:50:38;;;;;;;10.70;5.00;;;7.60;99.90;;;;;;5418637;26;20081;-76
2024/04/19 00:53:05;;;;;;;10.77;4.10;;;7.50;99.90;;;;;;5418393;26;20005;-76
2024/04/19 00:55:32;;;;;;;10.07;4.37;;;7.50;99.90;;;;;;5416554;26;20003;-76
2024/04/19 00:57:59;;;;;;;14.60;5.97;;;7.50;99.90;;;;;;5418669;26;20471;-76
2024/04/19 01:00:25;;;;;;;9.30;5.10;;;7.50;99.90;;;;;;5416373;26;20015;-78
2024/04/19 01:02:53;;;;;;;8.40;4.63;;;7.50;99.90;;;;;;5446386;26;20004;-77
2024/04/19 01:05:20;;;;;;;10.70;4.60;;;7.50;99.90;;;;;;5446229;26;20435;-78
2024/04/19 01:07:46;;;;;;;10.63;5.30;;;7.50;99.90;;;;;;5417858;26;20819;-78
2024/04/19 01:10:13;;;;;;;8.83;5.07;;;7.50;99.90;;;;;;5417723;26;20003;-76
2024/04/19 01:12:39;;;;;;;11.70;5.90;;;7.50;99.90;;;;;;5446171;26;20032;-76
2024/04/19 01:15:18;;;;;;;10.20;5.10;;;7.50;99.90;;;;;;5446450;26;19996;-79
2024/04/19 01:17:45;;;;;;;13.60;5.17;;;7.50;99.90;;;;;;5446073;26;19996;-78
2024/04/19 01:20:10;;;;;;;9.63;4.97;;;7.60;99.90;;;;;;5418103;26;20056;-78
2024/04/19 01:22:36;;;;;;;11.77;5.13;;;7.60;99.90;;;;;;5418199;26;20004;-80
2024/04/19 01:25:04;;;;;;;9.90;5.90;;;7.60;99.90;;;;;;5418075;26;20031;-78
2024/04/19 01:27:30;;;;;;;13.27;5.57;;;7.60;99.90;;;;;;5446229;26;19992;-79
2024/04/19 01:29:56;;;;;;;13.17;5.43;;;7.50;99.90;;;;;;5445733;26;19996;-79
2024/04/19 01:32:22;;;;;;;7.10;4.00;;;7.70;99.90;;;;;;5416074;26;19992;-79
2024/04/19 01:34:47;;;;;;;13.87;6.33;;;7.60;99.90;;;;;;5418169;26;20000;-78
2024/04/19 01:37:13;;;;;;;12.13;5.60;;;7.60;99.90;;;;;;5445932;26;20003;-79
2024/04/19 01:39:39;;;;;;;12.07;5.73;;;7.60;99.90;;;;;;5417882;26;19995;-80
2024/04/19 01:42:04;;;;;;;11.00;5.53;;;7.60;99.90;;;;;;5417813;26;19999;-81
2024/04/19 01:44:30;;;;;;;8.70;4.43;;;7.60;99.90;;;;;;5417143;26;20019;-80
2024/04/19 01:46:56;;;;;;;11.27;5.50;;;7.70;99.90;;;;;;5417792;26;20105;-80
2024/04/19 01:49:22;;;;;;;7.90;3.80;;;7.70;99.90;;;;;;5417916;26;19996;-80
2024/04/19 01:51:48;;;;;;;8.03;4.03;;;7.70;99.90;;;;;;5417160;26;20427;-79
2024/04/19 01:54:16;;;;;;;9.10;4.13;;;7.70;99.90;;;;;;5418043;26;20000;-81
2024/04/19 01:56:42;;;;;;;11.47;4.83;;;7.70;99.90;;;;;;5417567;26;20072;-80
2024/04/19 01:59:08;;;;;;;8.37;4.27;;;7.70;99.90;;;;;;5417810;26;20007;-79
2024/04/19 02:01:33;;;;;;;7.57;3.77;;;7.70;99.90;;;;;;5445638;26;20027;-79
2024/04/19 02:03:59;;;;;;;8.47;4.87;;;7.70;99.90;;;;;;5417429;26;20010;-81
2024/04/19 02:06:25;;;;;;;7.60;4.63;;;7.70;99.90;;;;;;5417384;26;20031;-81
2024/04/19 02:08:50;;;;;;;11.27;6.30;;;7.80;99.90;;;;;;5417270;26;19999;-78
2024/04/19 02:11:16;;;;;;;14.20;5.93;;;7.70;99.90;;;;;;5445181;26;20364;-79
2024/04/19 02:13:42;;;;;;;10.97;6.37;;;7.80;99.90;;;;;;5445339;26;20090;-81
2024/04/19 02:16:07;;;;;;;10.93;6.63;;;7.80;99.90;;;;;;5445328;26;19995;-79
2024/04/19 02:18:33;;;;;;;12.60;7.03;;;7.80;99.90;;;;;;5417216;26;19999;-81
2024/04/19 02:20:59;;;;;;;11.07;6.13;;;7.80;99.90;;;;;;5445067;26;20037;-78
2024/04/19 02:23:36;;;;;;;11.77;6.93;;;7.80;99.90;;;;;;5447027;26;20035;-79
2024/04/19 02:26:03;;;;;;;13.20;6.40;;;7.70;99.90;;;;;;5418709;26;20007;-80
2024/04/19 02:31:14;;;;;;;10.77;6.47;;;7.70;99.90;;;;;;5420702;26;20010;-81
2024/04/19 02:33:39;;;;;;;11.17;6.30;;;7.70;99.90;;;;;;5419956;26;20000;-78
2024/04/19 02:36:06;;;;;;;10.73;5.97;;;7.70;99.90;;;;;;5448641;26;20000;-80
2024/04/19 02:38:32;;;;;;;13.33;6.20;;;7.70;99.90;;;;;;5448103;26;20007;-78
2024/04/19 02:40:58;;;;;;;12.30;5.97;;;7.70;99.90;;;;;;5418509;26;19999;-79
2024/04/19 02:43:23;;;;;;;11.67;5.37;;;7.70;99.90;;;;;;5420188;26;19999;-80
2024/04/19 02:45:49;;;;;;;12.70;6.27;;;7.80;99.90;;;;;;5419960;26;20026;-79
2024/04/19 02:48:14;;;;;;;11.87;6.13;;;7.70;99.90;;;;;;5418404;26;20454;-78
2024/04/19 02:50:40;;;;;;;10.33;6.03;;;7.70;99.90;;;;;;5448605;26;19996;-78
2024/04/19 02:53:05;;;;;;;9.83;5.27;;;7.80;99.90;;;;;;5420150;26;20009;-80
2024/04/19 02:55:31;;;;;;;9.40;5.77;;;7.80;99.90;;;;;;5420129;26;20000;-80
2024/04/19 02:57:57;;;;;;;10.27;6.20;;;7.60;99.90;;;;;;5419771;26;20551;-81
2024/04/19 03:00:22;;;;;;;12.00;6.93;;;7.70;99.90;;;;;;5420146;26;20007;-81
2024/04/19 03:02:48;;;;;;;15.83;6.33;;;7.80;99.90;;;;;;5418060;26;19999;-79
2024/04/19 03:05:14;;;;;;;8.97;5.70;;;7.80;99.90;;;;;;5418271;26;19996;-80
2024/04/19 03:07:40;;;;;;;14.67;8.47;;;7.80;99.90;;;;;;5419933;26;20006;-80
2024/04/19 03:10:06;;;;;;;13.07;6.70;;;7.80;99.90;;;;;;5419837;26;20007;-81
2024/04/19 03:12:31;;;;;;;12.13;6.70;;;7.80;99.90;;;;;;5419860;26;20000;-79
2024/04/19 03:14:57;;;;;;;14.43;6.53;;;7.80;99.90;;;;;;5418526;26;20320;-81
2024/04/19 03:17:23;;;;;;;10.43;7.73;;;7.80;99.90;;;;;;5419747;26;20450;-82
2024/04/19 03:19:48;;;;;;;15.07;8.07;;;7.80;99.90;;;;;;5419528;26;20011;-81
2024/04/19 03:22:14;;;;;;;10.67;7.10;;;7.80;99.90;;;;;;5419863;26;19999;-80
2024/04/19 03:24:40;;;;;;;11.93;6.03;;;7.70;99.90;;;;;;5419830;26;19999;-81
2024/04/19 03:27:06;;;;;;;11.87;6.17;;;7.80;99.90;;;;;;5419780;26;20433;-80
2024/04/19 03:29:31;;;;;;;9.33;6.70;;;7.80;99.90;;;;;;5419808;26;20011;-81
2024/04/19 03:31:57;;;;;;;12.60;6.30;;;7.80;99.90;;;;;;5419777;26;19995;-80
2024/04/19 03:34:24;;;;;;;9.03;5.83;;;7.80;99.90;;;;;;5417457;26;20003;-79
2024/04/19 03:36:50;;;;;;;9.80;6.07;;;7.80;99.90;;;;;;5417845;26;19996;-81
2024/04/19 03:39:16;;;;;;;8.27;6.43;;;7.80;99.90;;;;;;5448236;26;20450;-79
2024/04/19 03:41:43;;;;;;;9.63;6.67;;;7.80;99.90;;;;;;5419525;26;19995;-81
2024/04/19 03:46:53;;;;;;;10.87;7.17;;;7.90;99.90;;;;;;5419470;26;20006;-81
2024/04/19 03:49:19;;;;;;;13.93;7.53;;;7.80;99.90;;;;;;5419884;26;20035;-81
2024/04/19 03:51:45;;;;;;;12.33;8.30;;;7.80;99.90;;;;;;5447675;26;20008;-78
2024/04/19 03:54:10;;;;;;;13.30;8.50;;;7.80;99.90;;;;;;5419344;26;20000;-78
2024/04/19 03:56:36;;;;;;;13.83;7.80;;;7.80;99.90;;;;;;5447088;26;19995;-82
2024/04/19 03:59:02;;;;;;;13.43;8.83;;;7.80;99.90;;;;;;5419046;26;20007;-79
2024/04/19 04:01:27;;;;;;;12.43;9.57;;;7.80;99.90;;;;;;5419501;26;20011;-79
2024/04/19 04:03:53;;;;;;;12.70;9.63;;;7.70;99.90;;;;;;5419519;26;19999;-78
2024/04/19 04:06:19;;;;;;;14.07;10.17;;;7.90;99.90;;;;;;5419225;26;19999;-79
2024/04/19 04:08:48;;;;;;;12.90;9.73;;;7.80;99.90;;;;;;5416916;26;20073;-77
2024/04/19 04:11:14;;;;;;;13.30;9.50;;;7.80;99.90;;;;;;5446855;26;20007;-78
2024/04/19 04:13:40;;;;;;;13.53;10.40;;;7.80;99.90;;;;;;5447283;26;19999;-78
2024/04/19 04:16:06;;;;;;;15.80;11.73;;;7.80;99.90;;;;;;5417153;26;20003;-76
2024/04/19 04:18:34;;;;;;;14.50;11.30;;;7.80;99.90;;;;;;5418986;26;20003;-77
2024/04/19 04:21:00;;;;;;;15.80;10.40;;;7.70;99.90;;;;;;5419097;26;20508;-76
2024/04/19 04:23:26;;;;;;;14.70;10.53;;;7.80;99.90;;;;;;5417158;26;20069;-74
2024/04/19 04:25:51;;;;;;;17.50;11.07;;;7.80;99.90;;;;;;5418914;26;20003;-76
2024/04/19 04:28:17;;;;;;;14.00;10.57;;;7.80;99.90;;;;;;5418818;26;20005;-79
2024/04/19 04:30:43;;;;;;;11.97;9.13;;;7.80;99.90;;;;;;5419071;26;19999;-78
2024/04/19 04:33:09;;;;;;;14.23;10.00;;;7.90;99.90;;;;;;5418440;26;20008;-79
2024/04/19 04:35:37;;;;;;;13.00;9.30;;;7.80;99.90;;;;;;5418793;26;20073;-78
2024/04/19 04:38:03;;;;;;;13.37;10.00;;;7.90;99.90;;;;;;5418641;26;20000;-80
2024/04/19 04:40:31;;;;;;;12.37;9.27;;;7.80;99.90;;;;;;5446517;26;20011;-78
2024/04/19 04:42:57;;;;;;;10.73;8.47;;;7.90;99.90;;;;;;5418974;26;20467;-78
2024/04/19 04:45:23;;;;;;;11.50;8.07;;;7.90;99.90;;;;;;5445951;26;20056;-78
2024/04/19 04:47:49;;;;;;;10.30;7.53;;;7.90;99.90;;;;;;5446878;26;20011;-82
2024/04/19 04:50:15;;;;;;;9.73;7.27;;;8.00;99.90;;;;;;5416979;26;20448;-82
2024/04/19 04:52:40;;;;;;;12.17;8.23;;;8.00;99.90;;;;;;5418514;26;20014;-83
2024/04/19 04:55:06;;;;;;;10.27;7.40;;;8.00;99.90;;;;;;5418292;26;20003;-85
2024/04/19 04:57:32;;;;;;;11.00;8.00;;;8.00;99.90;;;;;;5416373;26;20006;-86
2024/04/19 04:59:58;;;;;;;10.63;7.47;;;8.00;99.90;;;;;;5417369;26;20352;-84
2024/04/19 05:02:24;;;;;;;10.30;6.93;;;8.00;99.90;;;;;;5410337;26;20019;-82
2024/04/19 05:04:50;;;;;;;10.87;7.80;;;8.10;99.90;;;;;;5382555;26;20077;-83
2024/04/19 05:07:15;;;;;;;10.03;7.60;;;8.10;99.90;;;;;;5380703;26;20008;-84
2024/04/19 05:09:41;;;;;;;10.00;7.80;;;8.10;99.90;;;;;;5416163;26;20004;-85
2024/04/19 05:12:08;;;;;;;10.47;7.87;;;8.10;99.90;;;;;;5416367;26;20014;-85
2024/04/19 05:14:34;;;;;;;11.70;7.97;;;8.20;99.90;;;;;;5416686;26;19996;-82
2024/04/19 05:16:59;;;;;;;11.20;7.93;;;8.20;99.90;;;;;;5417886;26;20011;-81
2024/04/19 05:19:25;;;;;;;10.30;7.30;;;8.30;99.90;;;;;;5416426;26;20474;-87
2024/04/19 05:21:50;;;;;;;9.60;6.87;;;8.20;99.90;;;;;;5446386;26;20018;-86
2024/04/19 05:24:16;;;;;;;10.20;7.63;;;8.30;99.90;;;;;;5446148;26;20011;-83
2024/04/19 05:26:42;;;;;;;11.27;7.90;;;8.30;99.90;;;;;;5446121;26;20072;-85
2024/04/19 05:29:07;;;;;;;9.97;7.33;;;8.40;99.90;;;;;;5416240;26;20000;-79
2024/04/19 05:31:33;;;;;;;9.97;7.23;;;8.40;99.90;;;;;;5417959;26;20359;-84
2024/04/19 05:33:58;;;;;;;13.63;9.00;;;8.40;99.90;;;;;;5416115;26;20007;-78
2024/04/19 05:36:24;;;;;;;10.60;7.93;;;8.50;99.90;;;;;;5445424;26;20324;-80
2024/04/19 05:38:50;;;;;;;11.17;8.63;;;8.50;99.90;;;;;;5418386;26;20003;-84
2024/04/19 05:41:15;;;;;;;11.50;8.47;;;8.50;99.90;;;;;;5417758;26;20003;-80
2024/04/19 05:43:41;;;;;;;11.40;8.07;;;8.60;99.90;;;;;;5446236;26;19999;-83
2024/04/19 05:46:06;;;;;;;10.70;7.73;;;8.60;99.90;;;;;;5445557;26;20088;-84
2024/04/19 05:48:32;;;;;;;11.87;8.60;;;8.60;99.90;;;;;;5418020;26;20327;-82
2024/04/19 05:50:58;;;;;;;12.83;9.10;;;8.70;99.90;;;;;;5417383;26;20015;-80
2024/04/19 05:53:23;;;;;;;16.50;9.90;;;8.70;99.90;;;;;;5415764;26;20451;-83
2024/04/19 05:55:49;;;;;;;15.83;10.27;;;8.80;99.90;;;;;;5445312;26;20455;-82
2024/04/19 05:58:15;;;;;;;15.87;9.93;;;8.80;99.90;;;;;;5444398;26;20468;-85
2024/04/19 06:00:41;;;;;;;15.07;10.10;;;8.90;99.90;;;;;;5415607;26;20109;-85
2024/04/19 06:03:06;;;;;;;17.80;10.77;;;8.90;99.90;;;;;;5445951;26;20007;-83
2024/04/19 06:05:32;;;;;;;17.53;9.60;;;9.00;99.90;;;;;;5415874;26;20024;-85
2024/04/19 06:07:58;;;;;;;16.37;10.13;;;9.00;99.90;;;;;;5417292;26;20077;-86
2024/04/19 06:10:23;;;;;;;15.43;9.30;;;9.10;99.90;;;;;;5415433;26;20640;-87
2024/04/19 06:12:49;;;;;;;13.70;9.30;;;9.10;99.90;;;;;;5414901;26;20003;-85
2024/04/19 06:15:14;;;;;;;17.47;8.80;;;9.20;99.90;;;;;;5415414;26;20019;-85
2024/04/19 06:17:40;;;;;;;12.60;8.37;;;9.20;99.90;;;;;;5443366;26;20016;-87
2024/04/19 06:20:06;;;;;;;16.90;8.33;;;9.20;99.90;;;;;;5414210;26;20004;-87
2024/04/19 06:22:32;;;;;;;18.17;8.67;;;9.30;99.90;;;;;;5415297;26;20000;-86
2024/04/19 06:24:57;;;;;;;13.73;7.67;;;9.30;99.90;;;;;;5444501;26;20011;-86
2024/04/19 06:27:23;;;;;;;16.57;7.90;;;9.40;99.90;;;;;;5415090;26;20011;-87
2024/04/19 06:29:50;;;;;;;14.80;7.13;;;9.40;99.90;;;;;;5416060;26;20084;-84
2024/04/19 06:32:15;;;;;;;17.37;8.07;;;9.40;99.90;;;;;;5414827;26;20012;-86
2024/04/19 06:34:41;;;;;;;13.30;7.17;;;9.50;99.90;;;;;;5445429;26;20451;-85
2024/04/19 06:37:06;;;;;;;17.80;7.40;;;9.50;99.90;;;;;;5415223;26;20008;-83
2024/04/19 06:39:32;;;;;;;18.70;7.03;;;9.50;99.90;;;;;;5416813;26;20008;-83
2024/04/19 06:41:59;;;;;;;15.27;6.37;;;9.50;99.90;;;;;;5415342;26;20004;-86
2024/04/19 06:44:25;;;;;;;18.83;6.93;;;9.60;99.90;;;;;;5414970;26;20037;-85
2024/04/19 06:46:50;;;;;;;17.00;6.53;;;9.60;99.90;;;;;;5415105;26;20003;-83
2024/04/19 06:49:16;;;;;;;15.73;6.83;;;9.60;99.90;;;;;;5414631;26;20003;-87
2024/04/19 06:51:42;;;;;;;17.53;6.47;;;9.70;99.90;;;;;;5416756;26;20031;-85
2024/04/19 06:54:08;;;;;;;14.13;5.90;;;9.80;99.90;;;;;;5415453;26;20015;-84
2024/04/19 06:56:33;;;;;;;13.00;4.60;;;9.80;99.90;;;;;;5418572;26;20011;-82
2024/04/19 06:58:59;;;;;;;19.50;5.10;;;9.80;99.90;;;;;;5416700;26;20436;-82
2024/04/19 07:01:24;;;;;;;15.67;5.17;;;9.80;99.90;;;;;;5416279;26;20460;-82
2024/04/19 07:03:53;;;;;;;15.80;5.07;;;9.90;99.90;;;;;;5444334;26;20004;-83
2024/04/19 07:06:19;;;;;;;17.87;4.90;;;9.90;99.90;;;;;;5444451;26;20069;-82
2024/04/19 07:08:45;;;;;;;17.50;5.33;;;10.00;99.90;;;;;;5414856;26;20007;-81
2024/04/19 07:11:11;;;;;;;14.97;4.97;;;10.10;99.90;;;;;;5420376;26;20014;-83
2024/04/19 07:13:37;;;;;;;18.03;4.80;;;10.20;99.90;;;;;;5448856;26;20455;-82
2024/04/19 07:16:02;;;;;;;14.53;4.37;;;10.20;99.90;;;;;;5447974;26;20003;-85
2024/04/19 07:18:28;;;;;;;16.83;4.53;;;10.30;99.90;;;;;;5420147;26;20007;-85
2024/04/19 07:20:54;;;;;;;17.33;4.90;;;10.40;99.90;;;;;;5418990;26;19999;-84
2024/04/19 07:23:23;;;;;;;16.75;4.60;;;10.40;99.90;;;;;;5416936;26;20004;-83
2024/04/19 07:25:49;;;;;;;11.60;3.40;;;10.50;99.90;;;;;;5414755;26;20022;-82
2024/04/19 07:28:18;;;;;;;16.33;3.87;;;10.60;99.90;;;;;;5419284;26;20455;-81
2024/04/19 07:30:44;;;;;;;14.25;4.00;;;10.60;99.90;;;;;;5447802;26;20435;-83
2024/04/19 07:33:09;;;;;;;15.32;3.72;;;10.60;99.90;;;;;;5443047;26;20000;-83
2024/04/19 07:35:36;;;;;;;16.80;3.65;;;10.60;99.90;;;;;;5419242;26;20010;-82
2024/04/19 07:38:02;;;;;;;12.40;3.28;;;10.60;99.90;;;;;;5417267;26;20008;-82
2024/04/19 07:40:27;;;;;;;14.60;4.23;;;10.60;99.90;;;;;;5440639;26;20004;-83
2024/04/19 07:42:53;;;;;;;20.20;5.05;;;10.60;99.90;;;;;;5414697;26;20000;-83
2024/04/19 07:45:22;;;;;;;16.02;4.38;;;10.60;99.90;;;;;;5418881;26;20019;-81
2024/04/19 07:47:52;;;;;;;17.48;5.03;;;10.60;99.90;;;;;;5410918;26;20004;-83
2024/04/19 07:50:18;;;;;;;15.13;4.97;;;10.60;99.90;;;;;;5417049;26;19991;-84
2024/04/19 07:52:47;;;;;;;19.55;5.32;;;10.60;99.90;;;;;;5418429;26;19996;-84
2024/04/19 07:55:14;;;;;;;18.60;4.13;;;10.50;99.90;;;;;;5416275;26;20003;-86
2024/04/19 07:57:40;;;;;;;14.67;3.40;;;10.40;99.90;;;;;;5399421;26;20407;-86
2024/04/19 08:00:12;;;;;;;13.17;3.10;;;10.40;99.90;;;;;;5408380;26;20072;-83
2024/04/19 08:02:37;;;;;;;16.63;4.10;;;10.20;99.90;;;;;;5418808;26;20014;-83
2024/04/19 08:05:04;;;;;;;13.93;3.03;;;10.20;99.90;;;;;;5416890;26;19992;-84
2024/04/19 08:07:30;;;;;;;10.03;2.77;;;10.10;99.90;;;;;;5446694;26;19996;-83
2024/04/19 08:09:55;;;;;;;13.23;4.00;;;10.20;99.90;;;;;;5418812;26;19995;-84
2024/04/19 08:12:21;;;;;;;12.43;2.95;;;10.10;99.90;;;;;;5418843;26;19995;-84
2024/04/19 08:14:47;;;;;;;10.37;2.97;;;10.10;99.90;;;;;;5447106;26;19995;-84
2024/04/19 08:17:12;;;;;;;10.07;2.70;;;10.10;99.90;;;;;;5417028;26;20010;-85
2024/04/19 08:19:38;;;;;;;13.20;2.50;;;10.20;99.90;;;;;;5417722;26;20493;-85
2024/04/19 08:22:04;;;;;;;7.60;2.27;;;10.20;99.90;;;;;;5412793;26;20014;-84
2024/04/19 08:24:29;;;;;;;9.60;1.80;;;10.30;99.90;;;;;;5418164;26;19995;-84
2024/04/19 08:26:55;;;;;;;7.40;1.90;;;10.30;99.90;;;;;;5418504;26;20400;-83
2024/04/19 08:29:21;;;;;;;7.43;1.80;;;10.30;99.90;;;;;;5416279;26;19996;-85
2024/04/19 08:31:47;;;;;;;11.00;2.10;;;10.30;99.90;;;;;;5415633;26;19999;-84
2024/04/19 08:34:12;;;;;;;12.40;2.43;;;10.30;99.90;;;;;;5418086;26;20011;-84
2024/04/19 08:36:38;;;;;;;8.30;1.80;;;10.30;99.90;;;;;;5418259;26;20453;-84
2024/04/19 08:39:04;;;;;;;8.10;1.93;;;10.30;99.90;;;;;;5419645;26;20006;-80
2024/04/19 08:41:30;;;;;;;7.18;1.55;;;10.30;99.90;;;;;;5415995;26;19995;-82
2024/04/19 08:44:00;;;;;;;5.33;0.90;;;10.30;99.90;;;;;;5416272;26;20011;-86
2024/04/19 08:46:32;;;;;;;4.30;0.70;;;10.20;99.90;;;;;;5417565;26;20011;-80
2024/04/19 08:49:02;;;;;;;5.13;0.63;;;10.10;99.90;;;;;;5417789;26;20004;-79
2024/04/19 08:51:29;;;;;;;3.90;0.60;;;10.00;99.90;;;;;;5415834;26;20000;-83
2024/04/19 08:53:55;;;;;;;3.57;0.67;;;9.80;99.90;;;;;;5417721;26;20011;-81
2024/04/19 08:56:21;;;;;;;4.37;0.60;;;9.80;99.90;;;;;;5417406;26;20180;-80
2024/04/19 08:58:46;;;;;;;3.30;0.40;;;9.80;99.90;;;;;;5414220;26;20004;-78
2024/04/19 09:01:12;;;;;;;4.57;0.50;;;9.80;99.90;;;;;;5416809;26;20007;-81
2024/04/19 09:03:38;;;;;;;4.50;0.60;;;9.80;99.90;;;;;;5417728;26;20010;-78
2024/04/19 09:06:07;;;;;;;2.10;0.40;;;9.90;99.90;;;;;;5418325;26;19999;-78
2024/04/19 09:08:33;;;;;;;4.23;0.57;;;10.00;99.90;;;;;;5445784;26;19999;-77
2024/04/19 09:11:12;;;;;;;3.27;0.53;;;10.20;99.90;;;;;;5418068;26;20003;-80
2024/04/19 09:13:37;;;;;;;2.10;0.60;;;10.30;99.90;;;;;;5418098;26;20074;-79
2024/04/19 09:16:03;;;;;;;2.10;0.40;;;10.50;99.90;;;;;;5415887;26;20004;-81
2024/04/19 09:18:30;;;;;;;1.83;0.50;;;10.60;99.90;;;;;;5415284;26;19996;-81
2024/04/19 09:20:56;;;;;;;1.85;0.38;;;10.70;99.90;;;;;;5415494;26;20014;-83
2024/04/19 09:23:21;;;;;;;4.10;0.70;;;10.70;99.90;;;;;;5415183;26;20474;-79
2024/04/19 09:25:54;;;;;;;4.25;0.70;;;10.70;99.90;;;;;;5415181;26;20015;-80
2024/04/19 09:28:21;;;;;;;3.97;0.60;;;10.70;99.90;;;;;;5417425;26;20117;-78
2024/04/19 09:30:46;;;;;;;2.10;0.50;;;10.60;99.90;;;;;;5416945;26;20015;-78
2024/04/19 09:33:17;;;;;;;4.20;0.73;;;10.60;99.90;;;;;;5412425;26;20096;-77
2024/04/19 09:35:43;;;;;;;3.92;0.70;;;10.60;99.90;;;;;;5417660;26;20376;-78
2024/04/19 09:38:09;;;;;;;3.30;0.70;;;10.60;99.90;;;;;;5417076;26;20014;-79
2024/04/19 09:40:35;;;;;;;3.33;0.60;;;10.70;99.90;;;;;;5445869;26;20019;-77
2024/04/19 09:43:06;;;;;;;2.83;0.57;;;10.80;99.90;;;;;;5415306;26;20594;-80
2024/04/19 09:45:43;;;;;;;2.75;0.50;;;10.90;99.90;;;;;;5417420;26;20022;-78
2024/04/19 09:48:10;;;;;;;2.10;0.50;;;11.00;99.90;;;;;;5416531;26;20011;-80
2024/04/19 09:50:39;;;;;;;1.95;0.43;;;11.20;99.90;;;;;;5417892;26;19999;-79
2024/04/19 09:53:12;;;;;;;1.75;0.40;;;11.30;99.90;;;;;;5415239;26;19999;-81
2024/04/19 09:56:14;;;;;;;2.00;0.40;;;11.50;99.90;;;;;;5417901;26;20520;-84
2024/04/19 09:58:40;;;;;;;1.73;0.30;;;11.70;99.90;;;;;;5417687;26;20039;-80
2024/04/19 10:01:06;;;;;;;1.90;0.40;;;11.80;99.90;;;;;;5417424;26;20324;-83
2024/04/19 10:03:32;;;;;;;3.22;0.30;;;11.90;99.90;;;;;;5417104;26;20093;-80
2024/04/19 10:05:58;;;;;;;0.57;0.20;;;12.00;99.90;;;;;;5445619;26;19999;-85
2024/04/19 10:08:24;;;;;;;0.90;0.20;;;12.10;99.90;;;;;;5415314;26;19995;-85
2024/04/19 10:10:51;;;;;;;2.75;0.30;;;12.10;99.90;;;;;;5417548;26;20010;-85
2024/04/19 10:13:18;;;;;;;5.68;0.30;;;12.20;99.90;;;;;;5417158;26;20428;-84
2024/04/19 10:15:44;;;;;;;1.10;0.30;;;12.20;99.90;;;;;;5414499;26;20010;-86
2024/04/19 10:18:09;;;;;;;1.25;0.30;;;12.40;99.90;;;;;;5410370;26;19999;-86
2024/04/19 10:20:39;;;;;;;0.90;0.17;;;12.50;99.90;;;;;;5414895;26;19999;-85
2024/04/19 10:23:06;;;;;;;1.00;0.13;;;12.50;99.90;;;;;;5416349;26;20025;-84
2024/04/19 10:25:38;;;;;;;2.88;0.20;;;12.60;99.90;;;;;;5417793;26;20040;-85
2024/04/19 10:28:09;;;;;;;2.03;0.30;;;12.70;99.90;;;;;;5417058;26;20080;-85
2024/04/19 10:30:34;;;;;;;1.50;0.20;;;12.70;99.90;;;;;;5417186;26;20462;-84
2024/04/19 10:33:01;;;;;;;1.23;0.20;;;12.60;99.90;;;;;;5414729;26;19999;-84
2024/04/19 10:35:27;;;;;;;0.98;0.20;;;12.60;99.40;;;;;;5415232;26;20018;-84
2024/04/19 10:37:53;;;;;;;2.45;0.30;;;12.40;99.50;;;;;;5415016;26;20343;-85
2024/04/19 10:40:20;;;;;;;2.10;0.30;;;12.40;99.80;;;;;;5417200;26;20346;-86
2024/04/19 10:42:45;;;;;;;1.30;0.20;;;12.30;99.70;;;;;;5414970;26;20014;-86
2024/04/19 10:45:14;;;;;;;3.67;0.40;;;12.30;99.20;;;;;;5418274;26;19999;-85
2024/04/19 10:47:41;;;;;;;4.20;0.40;;;12.20;99.70;;;;;;5420645;26;20014;-85
2024/04/19 10:50:08;;;;;;;2.00;0.32;;;12.40;99.90;;;;;;5420973;26;20003;-84
2024/04/19 10:52:37;;;;;;;1.88;0.32;;;13.00;99.90;;;;;;5420300;26;20011;-89
2024/04/19 10:55:05;;;;;;;3.53;0.52;;;13.60;99.90;;;;;;5420410;26;20062;-84
2024/04/19 10:57:31;;;;;;;2.15;0.32;;;13.90;99.10;;;;;;5418245;26;20003;-83
2024/04/19 10:59:57;;;;;;;3.15;0.40;;;14.10;96.90;;;;;;5419727;26;20055;-83
2024/04/19 11:02:26;;;;;;;2.92;0.30;;;13.90;96.60;;;;;;5418294;26;20020;-84
2024/04/19 11:04:53;;;;;;;0.65;0.20;;;13.50;94.90;;;;;;5420481;26;20006;-84
2024/04/19 11:07:20;;;;;;;2.92;0.32;;;12.90;94.10;;;;;;5417563;26;20482;-82
2024/04/19 11:09:46;;;;;;;2.72;0.20;;;12.30;95.10;;;;;;5442098;26;20003;-84
2024/04/19 11:12:12;;;;;;;2.15;0.30;;;11.80;96.00;;;;;;5418235;26;20007;-82
2024/04/19 11:14:38;;;;;;;3.17;0.40;;;11.40;97.20;;;;;;5419709;26;20040;-81
2024/04/19 11:17:04;;;;;;;3.95;0.40;;;11.00;98.10;;;;;;5419202;26;20003;-87
2024/04/19 11:19:33;;;;;;;2.75;0.40;;;10.80;98.90;;;;;;5417359;26;20003;-84
2024/04/19 11:21:59;;;;;;;2.28;0.30;;;10.70;99.70;;;;;;5417431;26;19999;-84
2024/04/19 11:24:25;;;;;;;2.27;0.30;;;10.60;99.90;;;;;;5417769;26;20006;-85
2024/04/19 11:26:51;;;;;;;3.17;0.70;;;10.60;99.90;;;;;;5414161;26;20014;-81
2024/04/19 11:29:18;;;;;;;2.70;0.40;;;10.50;99.90;;;;;;5416337;26;19995;-82
2024/04/19 11:31:48;;;;;;;2.10;0.40;;;10.50;99.90;;;;;;5417603;26;20007;-86
2024/04/19 11:34:14;;;;;;;3.97;0.60;;;10.60;99.90;;;;;;5418973;26;20077;-84
2024/04/19 11:36:44;;;;;;;4.10;0.60;;;10.60;99.90;;;;;;5417319;26;20007;-87
2024/04/19 11:39:11;;;;;;;5.28;0.43;;;10.70;99.90;;;;;;5442376;26;19999;-86
2024/04/19 11:41:38;;;;;;;1.30;0.30;;;10.80;99.90;;;;;;5418720;26;20504;-81
2024/04/19 11:44:05;;;;;;;3.03;0.30;;;10.80;99.90;;;;;;5419758;26;20047;-87
2024/04/19 11:46:31;;;;;;;1.73;0.32;;;10.70;99.90;;;;;;5419596;26;20430;-86
2024/04/19 11:49:05;;;;;;;1.20;0.40;;;10.70;99.90;;;;;;5418273;26;20470;-87
2024/04/19 11:51:33;;;;;;;2.47;0.40;;;10.70;99.90;;;;;;5417830;26;20014;-84
2024/04/19 11:53:58;;;;;;;3.97;1.10;;;10.60;99.90;;;;;;5417656;26;20004;-82
2024/04/19 11:56:24;;;;;;;4.67;0.50;;;10.50;99.90;;;;;;5415770;26;20010;-84
2024/04/19 11:58:52;;;;;;;3.07;0.50;;;10.40;99.90;;;;;;5419282;26;20012;-85
2024/04/19 12:01:21;;;;;;;7.30;0.70;;;10.30;99.90;;;;;;5419541;26;20047;-83
2024/04/19 12:03:47;;;;;;;5.83;0.57;;;10.20;99.90;;;;;;5417817;26;20003;-83
2024/04/19 12:06:13;;;;;;;4.03;0.80;;;10.20;99.90;;;;;;5419570;26;20018;-83
2024/04/19 12:08:39;;;;;;;8.70;0.70;;;10.30;99.90;;;;;;5416897;26;20080;-84
2024/04/19 12:11:04;;;;;;;7.68;0.60;;;10.40;99.90;;;;;;5417569;26;20023;-88
2024/04/19 12:13:30;;;;;;;3.95;0.40;;;11.00;99.90;;;;;;5417364;26;20003;-86
2024/04/19 12:15:56;;;;;;;3.40;0.82;;;11.90;99.90;;;;;;5419188;26;20004;-83
2024/04/19 12:18:21;;;;;;;4.22;0.50;;;12.50;99.90;;;;;;5418423;26;20416;-82
2024/04/19 12:20:48;;;;;;;3.63;0.40;;;12.70;99.90;;;;;;5446038;26;20532;-83
2024/04/19 12:23:14;;;;;;;5.15;0.68;;;12.80;99.90;;;;;;5444246;26;20085;-85
2024/04/19 12:25:40;;;;;;;5.43;0.40;;;12.70;99.90;;;;;;5418555;26;20015;-86
2024/04/19 12:28:05;;;;;;;6.07;0.73;;;12.60;99.90;;;;;;5417282;26;20023;-83
2024/04/19 12:30:32;;;;;;;4.53;0.50;;;12.50;99.80;;;;;;5419293;26;20004;-87
2024/04/19 12:32:58;;;;;;;3.53;0.50;;;12.20;99.50;;;;;;5419230;26;20084;-84
2024/04/19 12:35:24;;;;;;;2.45;0.28;;;11.90;99.20;;;;;;5418340;26;20420;-84
2024/04/19 12:37:50;;;;;;;1.85;0.25;;;11.40;99.00;;;;;;5418624;26;20000;-87
2024/04/19 12:40:15;;;;;;;2.13;0.30;;;11.10;99.30;;;;;;5419112;26;20466;-87
2024/04/19 12:42:41;;;;;;;1.85;0.30;;;10.80;99.90;;;;;;5419290;26;20049;-86
2024/04/19 12:45:07;;;;;;;2.47;0.60;;;10.70;99.90;;;;;;5418346;26;20007;-85
2024/04/19 12:47:33;;;;;;;7.00;0.60;;;10.70;99.90;;;;;;5416762;26;19999;-84